Arrey, New Mexico
Current Conditions -  °F | °C
As of 9:53 AM on Saturday 25 Oct 2014 (Local Time) from KTCS Reporting Station
Clear Clear  
Wind Chill: 64°   Ceiling: Unl
Heat Index: 64°   Visibility: 10mi
Dew Point: 46°   Wind: 3mph
Humidity: 52%   Direction: 20°NNE
Pressure: 30.3"   Gusts: NA
Location:  32.79°N, 107.32°W
Report Text: KTCS 251553Z AUTO 02003KT 10SM CLR 18/08 A3030 RMK AO2 SLP196 T01780078 TSNO
Loading
Personal Weather Stations






























Interactive Weather Map
Tropical Storm Tracking
New forecast layout! Learn more

10-Day Weather Forecast

Advertisements
Track Severe Weather on mobile